createdAt,value
2018-06-17T00:00:01.091Z,63.50
2018-06-17T00:04:56.375Z,63.50
2018-06-17T00:14:46.395Z,63.50
2018-06-17T00:19:42.387Z,63.20
2018-06-17T00:22:09.942Z,63.20
2018-06-17T00:24:37.523Z,63.50
2018-06-17T00:27:05.991Z,64.10
2018-06-17T00:29:33.733Z,64.40
2018-06-17T00:32:01.380Z,64.60
2018-06-17T00:34:30.146Z,64.50
2018-06-17T00:36:59.767Z,64.80
2018-06-17T00:39:27.292Z,65.00
2018-06-17T00:44:23.363Z,65.20
2018-06-17T00:46:50.934Z,65.50
2018-06-17T00:56:42.519Z,65.00
2018-06-17T00:59:10.039Z,64.80
2018-06-17T01:01:37.605Z,65.00
2018-06-17T01:06:32.981Z,65.10
2018-06-17T01:09:00.520Z,65.20
2018-06-17T01:11:28.171Z,64.60
2018-06-17T01:13:55.716Z,65.30
2018-06-17T01:16:23.245Z,65.00
2018-06-17T01:18:51.267Z,65.40
2018-06-17T01:21:18.874Z,64.50
2018-06-17T01:23:46.364Z,64.20
2018-06-17T01:26:13.932Z,64.00
2018-06-17T01:28:41.485Z,64.50
2018-06-17T01:31:09.157Z,64.50
2018-06-17T01:33:36.818Z,64.80
2018-06-17T01:38:31.955Z,64.80
2018-06-17T01:41:00.094Z,65.10
2018-06-17T01:43:28.208Z,65.00
2018-06-17T01:45:55.792Z,65.30
2018-06-17T01:48:23.316Z,66.00
2018-06-17T01:50:50.821Z,66.00
2018-06-17T01:55:45.697Z,65.80
2018-06-17T01:58:13.221Z,65.70
2018-06-17T02:00:40.700Z,65.90
2018-06-17T02:03:14.059Z,65.90
2018-06-17T02:05:47.286Z,65.80
2018-06-17T02:08:20.537Z,66.10
2018-06-17T02:10:53.676Z,66.00
2018-06-17T02:13:21.209Z,65.30
2018-06-17T02:15:48.759Z,65.00
2018-06-17T02:18:16.301Z,64.50
2018-06-17T02:20:43.835Z,63.50
2018-06-17T02:23:11.436Z,62.70
2018-06-17T02:25:38.972Z,63.30
2018-06-17T02:28:06.553Z,63.50
2018-06-17T02:33:01.545Z,63.30
2018-06-17T02:42:51.295Z,61.00
2018-06-17T02:45:24.545Z,61.40
2018-06-17T02:47:57.739Z,61.90
2018-06-17T02:50:30.956Z,61.20
2018-06-17T02:53:04.107Z,59.80
2018-06-17T02:55:31.664Z,60.30
2018-06-17T02:57:59.125Z,60.30
2018-06-17T03:00:26.632Z,60.30
2018-06-17T03:02:54.144Z,60.20
2018-06-17T03:05:21.666Z,60.30
2018-06-17T03:10:16.558Z,59.60
2018-06-17T03:12:44.095Z,60.30
2018-06-17T03:15:11.642Z,59.60
2018-06-17T03:17:39.115Z,59.40
2018-06-17T03:20:06.612Z,58.80
2018-06-17T03:22:34.107Z,59.70
2018-06-17T03:25:07.338Z,59.90
2018-06-17T03:27:40.621Z,59.80
2018-06-17T03:30:13.869Z,59.90
2018-06-17T03:42:26.450Z,60.90
2018-06-17T03:44:53.922Z,63.60
2018-06-17T03:47:21.773Z,66.80
2018-06-17T03:49:49.265Z,62.30
2018-06-17T03:52:16.793Z,67.70
2018-06-17T03:54:44.304Z,59.50
2018-06-17T03:57:11.759Z,59.60
2018-06-17T04:02:06.665Z,60.00
2018-06-17T04:05:42.621Z,58.80
2018-06-17T04:08:10.092Z,58.50
2018-06-17T04:10:37.635Z,59.10
2018-06-17T04:13:05.140Z,60.10
2018-06-17T04:15:32.704Z,59.20
2018-06-17T04:18:00.473Z,59.40
2018-06-17T04:22:55.343Z,58.80
2018-06-17T04:25:22.919Z,58.30
2018-06-17T04:27:50.423Z,58.70
2018-06-17T04:42:30.558Z,57.70
2018-06-17T04:44:58.211Z,57.40
2018-06-17T04:47:25.726Z,57.70
2018-06-17T04:49:53.206Z,57.80
2018-06-17T04:52:20.765Z,57.40
2018-06-17T04:54:48.522Z,58.50
2018-06-17T04:57:16.168Z,57.70
2018-06-17T04:59:43.699Z,57.20
2018-06-17T05:02:11.220Z,56.90
2018-06-17T05:04:38.703Z,57.50
2018-06-17T05:07:06.220Z,57.80
2018-06-17T05:09:33.741Z,57.80
2018-06-17T05:12:01.384Z,58.40
2018-06-17T05:16:56.373Z,57.80
2018-06-17T05:19:23.942Z,58.20
2018-06-17T05:21:51.444Z,57.70
2018-06-17T05:26:46.474Z,57.70
2018-06-17T05:29:14.009Z,58.50
2018-06-17T05:31:42.240Z,58.50
2018-06-17T05:34:09.775Z,57.70
2018-06-17T05:36:37.272Z,58.20
2018-06-17T05:39:07.876Z,57.70
2018-06-17T05:41:35.394Z,58.20
2018-06-17T05:46:32.165Z,58.20
2018-06-17T05:51:27.172Z,57.10
2018-06-17T05:53:54.698Z,57.90
2018-06-17T05:56:22.252Z,58.00
2018-06-17T05:58:49.765Z,57.30
2018-06-17T06:01:17.309Z,56.10
2018-06-17T06:03:44.781Z,55.70
2018-06-17T06:06:12.383Z,54.80
2018-06-17T06:11:07.491Z,54.10
2018-06-17T06:13:36.023Z,53.10
2018-06-17T06:20:58.661Z,51.80
2018-06-17T06:23:27.519Z,52.00
2018-06-17T06:25:55.637Z,50.80
2018-06-17T06:30:51.671Z,50.40
2018-06-17T06:33:19.281Z,49.80
2018-06-17T06:35:46.829Z,50.10
2018-06-17T06:38:14.329Z,49.70
2018-06-17T06:40:41.971Z,50.00
2018-06-17T06:43:09.580Z,49.60
2018-06-17T06:45:37.172Z,49.30
2018-06-17T06:48:04.972Z,49.30
2018-06-17T06:50:32.530Z,49.70
2018-06-17T06:53:00.590Z,48.20
2018-06-17T06:55:28.882Z,48.20
2018-06-17T06:57:57.099Z,48.10
2018-06-17T07:00:24.671Z,48.70
2018-06-17T07:05:36.908Z,48.20
2018-06-17T07:08:15.825Z,48.60
2018-06-17T07:10:43.370Z,47.30
2018-06-17T07:13:10.879Z,46.30
2018-06-17T07:15:49.774Z,45.40
2018-06-17T07:18:28.420Z,45.20
2018-06-17T07:20:56.025Z,44.60
2018-06-17T07:23:23.523Z,43.00
2018-06-17T07:26:45.421Z,43.10
2018-06-17T07:29:25.776Z,42.10
2018-06-17T07:31:53.358Z,41.80
2018-06-17T07:36:48.809Z,41.80
2018-06-17T07:44:16.427Z,41.00
2018-06-17T07:46:44.234Z,40.50
2018-06-17T07:52:07.716Z,39.40
2018-06-17T07:54:36.801Z,40.20
2018-06-17T07:57:05.110Z,39.30
2018-06-17T07:59:33.135Z,38.80
2018-06-17T08:02:01.446Z,37.70
2018-06-17T08:04:28.939Z,38.30
2018-06-17T08:06:56.471Z,36.40
2018-06-17T08:11:51.643Z,35.70
2018-06-17T08:14:19.271Z,35.70
2018-06-17T08:19:14.266Z,34.80
2018-06-17T08:24:09.406Z,35.80
2018-06-17T08:26:36.950Z,34.80
2018-06-17T08:29:04.831Z,36.50
2018-06-17T08:31:34.397Z,39.50
2018-06-17T08:34:02.009Z,40.70
2018-06-17T08:36:29.523Z,41.50
2018-06-17T08:38:57.052Z,41.00
2018-06-17T08:41:24.604Z,40.50
2018-06-17T08:43:52.175Z,41.40
2018-06-17T08:46:19.838Z,42.10
2018-06-17T08:48:47.318Z,43.30
2018-06-17T08:51:14.869Z,42.10
2018-06-17T08:53:42.597Z,42.40
2018-06-17T08:56:10.252Z,42.90
2018-06-17T08:58:38.886Z,41.20
2018-06-17T09:03:35.949Z,41.80
2018-06-17T09:06:03.731Z,41.80
2018-06-17T09:10:59.658Z,40.30
2018-06-17T09:13:27.963Z,40.30
2018-06-17T09:18:24.727Z,39.30
2018-06-17T09:20:52.584Z,39.40
2018-06-17T09:25:49.066Z,41.20
2018-06-17T09:30:44.159Z,41.20
2018-06-17T09:33:11.791Z,41.70
2018-06-17T09:35:41.207Z,42.90
2018-06-17T09:38:08.928Z,42.00
2018-06-17T09:40:36.472Z,43.10
2018-06-17T09:45:31.923Z,43.50
2018-06-17T09:47:59.514Z,43.00
2018-06-17T09:50:27.437Z,43.20
2018-06-17T09:52:55.019Z,43.10
2018-06-17T09:55:23.172Z,40.70
2018-06-17T09:57:50.758Z,41.70
2018-06-17T10:02:52.182Z,48.30
2018-06-17T10:05:19.820Z,43.90
2018-06-17T10:07:47.648Z,40.90
2018-06-17T10:10:41.766Z,41.30
2018-06-17T10:13:09.349Z,41.30
2018-06-17T10:15:36.994Z,39.60
2018-06-17T10:18:04.741Z,41.50
2018-06-17T10:20:32.300Z,41.30
2018-06-17T10:27:54.990Z,41.50
2018-06-17T10:30:23.829Z,41.40
2018-06-17T10:32:51.574Z,39.20
2018-06-17T10:35:19.445Z,40.90
2018-06-17T10:37:46.990Z,39.60
2018-06-17T10:40:14.502Z,40.30
2018-06-17T10:42:43.080Z,39.60
2018-06-17T10:45:12.597Z,39.10
2018-06-17T10:47:40.157Z,38.90
2018-06-17T10:50:08.682Z,39.70
2018-06-17T10:52:36.212Z,40.30
2018-06-17T10:57:31.311Z,41.10
2018-06-17T11:02:26.295Z,41.20
2018-06-17T11:04:53.842Z,39.50
2018-06-17T11:07:21.410Z,40.20
2018-06-17T11:09:48.963Z,40.10
2018-06-17T11:12:16.603Z,40.40
2018-06-17T11:17:11.622Z,40.90
2018-06-17T11:19:39.214Z,41.20
2018-06-17T11:24:34.548Z,40.60
2018-06-17T11:29:29.743Z,56.60
2018-06-17T11:31:57.410Z,54.50
2018-06-17T11:34:24.977Z,53.20
2018-06-17T11:36:52.589Z,51.60
2018-06-17T11:39:20.171Z,52.10
2018-06-17T11:41:48.398Z,61.00
2018-06-17T11:44:17.196Z,57.80
2018-06-17T11:46:44.891Z,60.70
2018-06-17T11:49:13.581Z,60.50
2018-06-17T11:51:41.966Z,51.40
2018-06-17T11:54:10.903Z,51.80
2018-06-17T11:56:38.553Z,49.20
2018-06-17T11:59:06.744Z,55.30
2018-06-17T12:04:01.819Z,44.70
2018-06-17T12:06:29.397Z,52.80
2018-06-17T12:08:57.550Z,44.70
2018-06-17T12:16:21.004Z,50.50
2018-06-17T12:21:16.041Z,44.00
2018-06-17T12:23:43.631Z,49.10
2018-06-17T12:26:11.243Z,52.80
2018-06-17T12:28:39.343Z,45.70
2018-06-17T12:31:07.531Z,42.90
2018-06-17T12:33:35.140Z,50.50
2018-06-17T12:36:02.708Z,46.40
2018-06-17T12:40:57.776Z,49.10
2018-06-17T12:43:25.376Z,51.00
2018-06-17T12:45:54.606Z,47.90
2018-06-17T12:50:49.628Z,55.20
2018-06-17T12:55:44.621Z,55.00
2018-06-17T12:58:13.167Z,55.40
2018-06-17T13:00:41.417Z,45.70
2018-06-17T13:21:04.071Z,44.00
2018-06-17T13:23:31.608Z,52.50
2018-06-17T13:28:26.642Z,49.60
2018-06-17T13:30:54.494Z,51.40
2018-06-17T13:33:22.842Z,41.80
2018-06-17T13:35:50.742Z,51.00
2018-06-17T13:40:46.388Z,42.50
2018-06-17T13:43:13.944Z,52.40
2018-06-17T13:45:41.516Z,51.80
2018-06-17T13:48:09.066Z,43.80
2018-06-17T13:50:37.500Z,44.70
2018-06-17T13:53:05.080Z,54.80
2018-06-17T13:55:32.740Z,55.00
2018-06-17T13:58:00.274Z,53.40
2018-06-17T14:00:28.036Z,45.00
2018-06-17T14:02:56.958Z,53.60
2018-06-17T14:07:51.977Z,56.20
2018-06-17T14:10:19.712Z,48.80
2018-06-17T14:12:47.550Z,54.00
2018-06-17T14:15:16.160Z,55.40
2018-06-17T14:17:44.640Z,52.70
2018-06-17T14:20:12.384Z,46.70
2018-06-17T14:22:40.433Z,48.70
2018-06-17T14:25:08.636Z,52.60
2018-06-17T14:34:59.915Z,44.90
2018-06-17T14:45:02.256Z,52.90
2018-06-17T14:47:35.646Z,51.80
2018-06-17T14:50:09.176Z,52.00
2018-06-17T14:52:42.765Z,44.30
2018-06-17T15:00:06.002Z,44.40
2018-06-17T15:02:33.537Z,44.30
2018-06-17T15:05:01.126Z,45.00
2018-06-17T15:07:28.821Z,44.30
2018-06-17T15:09:56.631Z,45.10
2018-06-17T15:14:51.877Z,50.00
2018-06-17T15:17:20.048Z,46.20
2018-06-17T15:19:47.649Z,49.90
2018-06-17T15:22:15.254Z,48.90
2018-06-17T15:27:11.309Z,48.40
2018-06-17T15:32:12.535Z,49.90
2018-06-17T15:34:45.653Z,47.00
2018-06-17T15:42:17.096Z,46.60
2018-06-17T15:44:44.796Z,49.50
2018-06-17T15:52:09.168Z,45.30
2018-06-17T15:54:36.790Z,45.30
2018-06-17T15:57:04.721Z,55.30
2018-06-17T15:59:32.424Z,49.60
2018-06-17T16:02:00.168Z,56.50
2018-06-17T16:09:23.174Z,49.20
2018-06-17T16:22:03.873Z,53.30
2018-06-17T16:24:31.454Z,49.50
2018-06-17T16:36:50.218Z,46.60
2018-06-17T16:39:17.739Z,55.10
2018-06-17T16:41:45.374Z,50.60
2018-06-17T16:44:13.258Z,46.70
2018-06-17T16:46:41.465Z,47.50
2018-06-17T16:49:09.416Z,46.70
2018-06-17T16:51:42.749Z,56.00
2018-06-17T16:54:17.083Z,45.60
2018-06-17T16:56:50.154Z,52.70
2018-06-17T16:59:23.634Z,54.10
2018-06-17T17:06:46.556Z,46.00
2018-06-17T17:09:14.145Z,46.50
2018-06-17T17:11:41.711Z,48.50
2018-06-17T17:14:11.305Z,48.70
2018-06-17T17:16:40.331Z,48.60
2018-06-17T17:24:02.905Z,48.60
2018-06-17T17:26:30.548Z,48.40
2018-06-17T17:28:58.097Z,46.80
2018-06-17T17:34:03.366Z,49.00
2018-06-17T17:39:11.875Z,53.00
2018-06-17T17:44:07.356Z,48.20
2018-06-17T17:46:40.487Z,50.60
2018-06-17T17:49:08.080Z,51.10
2018-06-17T17:56:32.398Z,55.70
2018-06-17T17:59:00.341Z,49.60
2018-06-17T18:03:55.697Z,54.10
2018-06-17T18:07:48.350Z,47.50
2018-06-17T18:10:17.076Z,46.40
2018-06-17T18:12:44.690Z,47.30
2018-06-17T18:17:39.889Z,52.20
2018-06-17T18:22:34.921Z,47.60
2018-06-17T18:25:08.154Z,50.20
2018-06-17T18:27:41.470Z,54.40
2018-06-17T18:32:47.890Z,51.20
2018-06-17T18:47:39.210Z,51.00
2018-06-17T18:52:36.029Z,53.50
2018-06-17T18:57:31.553Z,54.90
2018-06-17T18:59:59.151Z,54.10
2018-06-17T19:02:26.871Z,51.40
2018-06-17T19:04:54.452Z,51.30
2018-06-17T19:07:22.008Z,56.00
2018-06-17T19:18:32.556Z,54.40
2018-06-17T19:21:00.742Z,54.10
2018-06-17T19:23:28.593Z,56.60
2018-06-17T19:25:56.283Z,56.30
2018-06-17T19:30:51.290Z,54.80
2018-06-17T19:33:19.444Z,56.00
2018-06-17T19:40:43.424Z,53.80
2018-06-17T19:43:11.194Z,59.90
2018-06-17T19:58:21.982Z,56.20
2018-06-17T20:05:48.440Z,53.50
2018-06-17T20:18:06.671Z,53.50
2018-06-17T20:20:34.921Z,53.50
2018-06-17T20:30:24.945Z,53.50
2018-06-17T20:32:58.141Z,53.30
2018-06-17T20:35:31.377Z,53.00
2018-06-17T20:40:37.689Z,53.40
2018-06-17T20:43:10.962Z,53.90
2018-06-17T20:57:51.072Z,53.20
2018-06-17T21:00:19.706Z,53.20
2018-06-17T21:02:51.981Z,54.00
2018-06-17T21:10:15.418Z,54.30
2018-06-17T21:17:45.999Z,55.50
2018-06-17T21:20:19.567Z,54.70
2018-06-17T21:27:55.956Z,55.00
2018-06-17T21:30:23.509Z,55.80
2018-06-17T21:37:46.065Z,55.60
2018-06-17T21:40:13.631Z,56.30
2018-06-17T21:42:41.876Z,55.70
2018-06-17T21:50:04.893Z,55.90
2018-06-17T21:54:59.976Z,56.00
2018-06-17T21:57:27.545Z,56.70
2018-06-17T22:02:22.564Z,56.80
2018-06-17T22:04:50.223Z,56.90
2018-06-17T22:07:17.763Z,57.30
2018-06-17T22:09:50.875Z,57.20
2018-06-17T22:19:57.785Z,57.50
2018-06-17T22:24:52.744Z,57.90
2018-06-17T22:27:20.322Z,57.30
2018-06-17T22:29:47.875Z,57.60
2018-06-17T22:32:15.551Z,57.50
2018-06-17T22:34:43.096Z,57.60
2018-06-17T22:37:10.648Z,57.70
2018-06-17T22:39:38.663Z,57.70
2018-06-17T22:42:06.513Z,57.50
2018-06-17T22:44:34.441Z,57.50
2018-06-17T22:47:02.015Z,58.00
2018-06-17T22:49:29.573Z,58.40
2018-06-17T22:51:57.175Z,58.10
2018-06-17T22:58:05.284Z,58.50
2018-06-17T23:03:12.386Z,58.70
2018-06-17T23:10:46.195Z,58.80
2018-06-17T23:13:13.752Z,58.90
2018-06-17T23:18:08.700Z,58.50
2018-06-17T23:20:39.468Z,59.20
2018-06-17T23:23:06.970Z,58.40
2018-06-17T23:28:04.440Z,57.70
2018-06-17T23:30:32.074Z,57.60
2018-06-17T23:32:59.561Z,57.50
2018-06-17T23:35:27.141Z,59.20
2018-06-17T23:37:54.671Z,57.90
2018-06-17T23:40:22.200Z,59.70
2018-06-17T23:42:49.713Z,58.20
2018-06-17T23:45:17.196Z,59.30
2018-06-17T23:47:50.329Z,59.50
2018-06-17T23:50:23.541Z,58.40
2018-06-17T23:57:57.175Z,58.70
